Time;durP1;ratioP1;P1;durP2;ratioP2;P2;SDS_P1;SDS_P2;PMS_P1;PMS_P2;Temp;Humidity;BMP_temperature;BMP_pressure;BME280_temperature;BME280_humidity;BME280_pressure;Samples;Min_cycle;Max_cycle;Signal;HPM_P1;HPM_P2
2024/01/28 00:02:19;;;;;;;6.20;3.22;;;6.40;84.60;;;;;;5060022;28;20033;-80
2024/01/28 00:04:44;;;;;;;7.63;4.05;;;6.30;85.60;;;;;;5061022;28;20032;-79
2024/01/28 00:07:10;;;;;;;10.52;3.83;;;6.00;86.30;;;;;;5058056;28;20610;-82
2024/01/28 00:09:36;;;;;;;6.07;2.83;;;6.00;85.30;;;;;;5061112;28;20051;-79
2024/01/28 00:12:02;;;;;;;11.02;3.90;;;5.80;85.80;;;;;;5062090;28;20036;-82
2024/01/28 00:14:27;;;;;;;7.40;4.25;;;5.80;86.00;;;;;;5063482;28;20034;-79
2024/01/28 00:16:53;;;;;;;11.32;5.85;;;5.70;85.90;;;;;;5055280;28;20036;-80
2024/01/28 00:19:19;;;;;;;8.68;4.60;;;5.60;87.30;;;;;;5062036;28;20048;-79
2024/01/28 00:21:44;;;;;;;8.65;4.65;;;5.50;86.90;;;;;;5058860;28;20039;-79
2024/01/28 00:24:10;;;;;;;10.40;4.53;;;5.50;86.30;;;;;;5062876;28;20052;-82
2024/01/28 00:26:40;;;;;;;9.55;5.53;;;5.70;86.10;;;;;;5058395;28;20055;-79
2024/01/28 00:29:06;;;;;;;7.78;4.40;;;5.70;85.50;;;;;;5062364;28;20068;-82
2024/01/28 00:31:32;;;;;;;6.20;3.42;;;5.50;86.30;;;;;;5058174;28;20032;-82
2024/01/28 00:33:58;;;;;;;7.63;4.03;;;5.30;85.20;;;;;;5062517;28;20043;-82
2024/01/28 00:36:23;;;;;;;6.50;3.67;;;5.30;85.40;;;;;;5058251;28;20032;-82
2024/01/28 00:38:49;;;;;;;8.23;4.70;;;5.40;84.80;;;;;;5061863;28;20462;-81
2024/01/28 00:41:28;;;;;;;7.45;4.47;;;5.70;86.80;;;;;;5057753;28;20133;-82
2024/01/28 00:43:54;;;;;;;8.57;4.75;;;6.00;87.20;;;;;;5056978;28;20033;-81
2024/01/28 00:46:22;;;;;;;9.55;4.85;;;5.90;87.10;;;;;;5065909;28;20115;-79
2024/01/28 00:48:48;;;;;;;7.55;4.63;;;6.20;86.10;;;;;;5061116;28;20041;-81
2024/01/28 00:51:14;;;;;;;8.20;4.90;;;6.30;86.40;;;;;;5056666;28;20040;-79
2024/01/28 00:53:40;;;;;;;12.27;5.15;;;6.60;85.50;;;;;;5061738;28;20031;-80
2024/01/28 00:56:06;;;;;;;9.50;5.43;;;6.50;86.70;;;;;;5064439;28;20038;-79
2024/01/28 00:58:33;;;;;;;13.38;5.75;;;6.20;87.30;;;;;;5065603;28;20131;-81
2024/01/28 01:00:58;;;;;;;10.90;6.13;;;6.20;88.70;;;;;;5063591;28;20575;-82
2024/01/28 01:03:24;;;;;;;11.55;7.85;;;6.20;88.70;;;;;;5062673;28;20035;-80
2024/01/28 01:05:50;;;;;;;10.77;6.47;;;6.30;89.50;;;;;;5064607;28;20024;-79
2024/01/28 01:08:16;;;;;;;11.57;7.07;;;6.30;90.00;;;;;;5053340;28;20076;-82
2024/01/28 01:10:42;;;;;;;10.48;6.35;;;6.30;89.50;;;;;;5063450;28;20046;-82
2024/01/28 01:13:07;;;;;;;10.10;6.75;;;6.30;89.40;;;;;;5063996;28;20032;-79
2024/01/28 01:15:33;;;;;;;10.35;6.88;;;6.30;88.90;;;;;;5068523;28;20036;-80
2024/01/28 01:17:59;;;;;;;11.35;5.80;;;6.20;88.80;;;;;;5044384;28;20040;-82
2024/01/28 01:20:25;;;;;;;12.35;6.80;;;6.20;88.40;;;;;;5065355;28;20044;-82
2024/01/28 01:22:50;;;;;;;12.43;6.78;;;6.20;88.50;;;;;;5061116;28;20114;-79
2024/01/28 01:25:16;;;;;;;14.02;6.85;;;6.50;88.20;;;;;;5064258;28;20525;-80
2024/01/28 01:27:44;;;;;;;15.05;7.22;;;6.50;87.50;;;;;;5065296;28;20465;-80
2024/01/28 01:30:10;;;;;;;8.93;5.40;;;6.20;88.50;;;;;;5062767;28;20037;-80
2024/01/28 01:32:37;;;;;;;9.80;5.40;;;6.30;87.20;;;;;;5066886;28;20040;-80
2024/01/28 01:35:03;;;;;;;11.07;7.30;;;6.40;85.10;;;;;;5056427;28;20144;-79
2024/01/28 01:37:29;;;;;;;11.32;5.68;;;6.70;87.20;;;;;;5060829;28;20039;-80
2024/01/28 01:39:54;;;;;;;9.18;5.13;;;6.40;86.90;;;;;;5063802;28;20044;-80
2024/01/28 01:42:20;;;;;;;8.90;4.25;;;5.90;87.20;;;;;;5063041;28;20036;-80
2024/01/28 01:44:46;;;;;;;9.88;4.85;;;5.60;88.00;;;;;;5063051;28;20119;-79
2024/01/28 01:47:12;;;;;;;9.88;5.05;;;5.30;89.20;;;;;;5057100;28;20044;-80
2024/01/28 01:49:38;;;;;;;9.52;5.43;;;5.10;90.00;;;;;;5048363;28;20339;-79
2024/01/28 01:52:06;;;;;;;7.65;4.40;;;5.00;89.70;;;;;;5065527;28;20623;-80
2024/01/28 01:54:32;;;;;;;9.38;4.57;;;4.90;90.10;;;;;;5065083;28;20024;-79
2024/01/28 01:56:58;;;;;;;9.38;4.82;;;4.80;90.10;;;;;;5063970;28;20040;-80
2024/01/28 01:59:24;;;;;;;8.23;5.05;;;4.60;90.00;;;;;;5063350;28;21397;-80
2024/01/28 02:01:54;;;;;;;8.98;4.82;;;4.60;90.20;;;;;;5060068;28;20628;-80
2024/01/28 02:04:21;;;;;;;7.13;3.60;;;4.70;89.80;;;;;;5057962;28;20093;-80
2024/01/28 02:06:48;;;;;;;7.28;3.25;;;5.00;88.10;;;;;;5062115;28;20119;-80
2024/01/28 02:09:14;;;;;;;8.57;4.25;;;5.00;88.50;;;;;;5063023;28;20405;-81
2024/01/28 02:11:41;;;;;;;7.50;3.67;;;4.70;89.70;;;;;;5058619;28;20731;-82
2024/01/28 02:14:07;;;;;;;7.25;3.42;;;4.70;90.10;;;;;;5061427;28;20436;-81
2024/01/28 02:16:33;;;;;;;7.75;4.35;;;4.60;90.20;;;;;;5063565;28;20081;-81
2024/01/28 02:18:58;;;;;;;8.95;3.80;;;4.50;90.50;;;;;;5059077;28;20980;-80
2024/01/28 02:21:24;;;;;;;7.85;3.80;;;4.50;91.00;;;;;;5067929;28;20040;-81
2024/01/28 02:23:50;;;;;;;9.13;3.67;;;4.40;91.20;;;;;;5060617;28;20041;-81
2024/01/28 02:26:16;;;;;;;6.88;4.28;;;4.30;90.60;;;;;;5066549;28;20547;-81
2024/01/28 02:28:41;;;;;;;8.13;4.50;;;4.40;91.00;;;;;;5064375;28;20029;-81
2024/01/28 02:31:07;;;;;;;8.57;3.95;;;4.10;91.50;;;;;;5067597;28;20093;-79
2024/01/28 02:33:33;;;;;;;7.00;3.08;;;4.20;90.70;;;;;;5072649;28;20454;-79
2024/01/28 02:35:58;;;;;;;5.15;3.08;;;4.20;90.70;;;;;;5066959;28;20039;-81
2024/01/28 02:38:24;;;;;;;6.32;3.42;;;4.30;90.20;;;;;;5063668;28;20036;-81
2024/01/28 02:40:52;;;;;;;6.22;2.80;;;4.20;90.10;;;;;;5066626;28;20048;-81
2024/01/28 02:43:19;;;;;;;6.20;3.47;;;4.20;89.70;;;;;;5063557;28;20032;-81
2024/01/28 02:45:45;;;;;;;6.85;2.92;;;4.20;90.10;;;;;;5066439;28;20524;-81
2024/01/28 02:48:11;;;;;;;7.30;3.67;;;4.20;90.00;;;;;;5068449;28;20127;-81
2024/01/28 02:50:36;;;;;;;6.53;3.58;;;4.30;90.10;;;;;;5068383;28;20040;-81
2024/01/28 02:53:02;;;;;;;6.65;3.75;;;4.20;90.10;;;;;;5067458;28;20078;-81
2024/01/28 02:55:28;;;;;;;6.90;3.65;;;4.30;89.40;;;;;;5058502;28;20032;-81
2024/01/28 02:57:53;;;;;;;7.88;4.40;;;4.40;89.50;;;;;;5062449;28;20089;-81
2024/01/28 03:00:19;;;;;;;7.68;3.50;;;4.40;89.10;;;;;;5065194;28;20036;-81
2024/01/28 03:02:45;;;;;;;6.55;3.97;;;4.40;89.10;;;;;;5071360;28;20029;-81
2024/01/28 03:05:11;;;;;;;7.40;4.07;;;4.40;89.00;;;;;;5068080;28;20035;-81
2024/01/28 03:07:37;;;;;;;7.13;2.78;;;4.50;88.80;;;;;;5068657;28;20484;-81
2024/01/28 03:10:03;;;;;;;5.47;3.33;;;4.40;88.40;;;;;;5063569;28;20116;-81
2024/01/28 03:12:28;;;;;;;6.90;3.10;;;4.50;88.10;;;;;;5064500;28;20036;-81
2024/01/28 03:14:54;;;;;;;5.30;3.00;;;4.50;87.80;;;;;;5065513;28;20029;-81
2024/01/28 03:17:20;;;;;;;5.88;3.20;;;4.60;87.40;;;;;;5068299;28;20097;-81
2024/01/28 03:19:46;;;;;;;6.05;3.22;;;4.60;87.30;;;;;;5074625;28;20118;-81
2024/01/28 03:22:12;;;;;;;5.68;3.17;;;4.60;87.50;;;;;;5067216;28;20040;-81
2024/01/28 03:24:40;;;;;;;10.27;3.15;;;4.40;87.50;;;;;;5073732;28;20035;-81
2024/01/28 03:27:05;;;;;;;5.55;2.97;;;4.10;88.60;;;;;;5078065;28;20397;-81
2024/01/28 03:29:31;;;;;;;5.05;2.95;;;3.90;89.90;;;;;;5077264;28;20054;-81
2024/01/28 03:31:57;;;;;;;10.80;3.78;;;3.80;90.20;;;;;;5078505;28;20037;-80
2024/01/28 03:34:22;;;;;;;6.35;3.42;;;4.00;90.10;;;;;;5073726;28;20049;-81
2024/01/28 03:36:48;;;;;;;6.88;3.88;;;4.20;89.70;;;;;;5066054;28;20032;-81
2024/01/28 03:39:14;;;;;;;7.20;3.53;;;4.20;89.80;;;;;;5066904;28;20120;-81
2024/01/28 03:41:40;;;;;;;4.82;2.65;;;4.20;89.70;;;;;;5071039;28;20122;-81
2024/01/28 03:44:06;;;;;;;7.28;3.30;;;4.20;89.80;;;;;;5071265;28;20565;-81
2024/01/28 03:46:32;;;;;;;5.72;3.10;;;4.30;89.30;;;;;;5062998;28;20107;-81
2024/01/28 03:49:00;;;;;;;4.97;2.92;;;4.30;88.90;;;;;;5070525;28;20027;-81
2024/01/28 03:51:26;;;;;;;5.65;2.83;;;4.30;88.90;;;;;;5073333;28;20036;-81
2024/01/28 03:53:51;;;;;;;6.28;3.20;;;4.60;87.70;;;;;;5072067;28;20039;-80
2024/01/28 03:56:17;;;;;;;4.90;2.53;;;4.70;86.70;;;;;;5071231;28;20433;-81
2024/01/28 03:58:43;;;;;;;6.60;2.80;;;5.30;84.80;;;;;;5072698;28;20032;-81
2024/01/28 04:01:08;;;;;;;5.60;2.95;;;5.10;86.70;;;;;;5066476;28;20484;-81
2024/01/28 04:03:36;;;;;;;5.32;2.47;;;4.70;87.10;;;;;;5066505;28;20079;-81
2024/01/28 04:06:02;;;;;;;4.55;2.63;;;4.70;85.70;;;;;;5069501;28;20035;-81
2024/01/28 04:08:28;;;;;;;5.88;2.50;;;4.50;86.70;;;;;;5068742;28;20067;-81
2024/01/28 04:10:53;;;;;;;5.47;2.15;;;4.50;87.60;;;;;;5066575;28;20113;-81
2024/01/28 04:13:19;;;;;;;5.25;2.38;;;4.50;87.60;;;;;;5067951;28;20621;-81
2024/01/28 04:15:45;;;;;;;4.90;2.50;;;4.30;88.10;;;;;;5059053;28;20029;-81
2024/01/28 04:18:10;;;;;;;6.30;3.03;;;4.00;88.90;;;;;;5060015;28;20498;-81
2024/01/28 04:20:36;;;;;;;4.18;2.00;;;4.10;88.60;;;;;;5065794;28;20492;-81
2024/01/28 04:23:02;;;;;;;5.47;2.70;;;4.30;87.60;;;;;;5065788;28;20362;-81
2024/01/28 04:25:27;;;;;;;6.60;2.90;;;4.50;87.00;;;;;;5063892;28;20773;-81
2024/01/28 04:27:53;;;;;;;3.80;2.08;;;4.40;86.60;;;;;;5065888;28;20371;-81
2024/01/28 04:30:19;;;;;;;5.07;2.35;;;4.40;86.80;;;;;;5064318;28;20370;-81
2024/01/28 04:32:44;;;;;;;5.28;2.50;;;4.20;87.20;;;;;;5063951;28;20100;-81
2024/01/28 04:35:11;;;;;;;5.15;2.47;;;4.20;87.00;;;;;;5066246;28;20694;-81
2024/01/28 04:37:37;;;;;;;4.40;2.40;;;4.10;87.30;;;;;;5058677;28;20024;-81
2024/01/28 04:40:04;;;;;;;3.72;1.92;;;4.00;87.50;;;;;;5061836;28;20422;-81
2024/01/28 04:42:30;;;;;;;4.88;2.28;;;4.20;87.00;;;;;;5069625;28;20036;-81
2024/01/28 04:44:56;;;;;;;5.30;2.30;;;4.20;86.90;;;;;;5064794;28;20082;-81
2024/01/28 04:47:22;;;;;;;5.43;2.30;;;4.10;87.30;;;;;;5066335;28;20044;-80
2024/01/28 04:49:47;;;;;;;4.63;2.22;;;4.30;86.50;;;;;;5066638;28;20039;-80
2024/01/28 04:52:13;;;;;;;5.80;2.65;;;3.90;87.70;;;;;;5064561;28;20035;-80
2024/01/28 04:54:39;;;;;;;4.13;2.20;;;3.90;88.20;;;;;;5063921;28;20031;-81
2024/01/28 04:57:05;;;;;;;4.70;2.20;;;3.80;88.80;;;;;;5063844;28;20556;-81
2024/01/28 04:59:30;;;;;;;4.20;2.10;;;3.90;89.20;;;;;;5066175;28;20358;-81
2024/01/28 05:01:56;;;;;;;3.53;2.05;;;3.90;89.00;;;;;;5063438;28;20040;-81
2024/01/28 05:04:22;;;;;;;5.25;2.13;;;3.90;88.40;;;;;;5065029;28;20032;-81
2024/01/28 05:06:48;;;;;;;4.35;2.10;;;3.90;89.80;;;;;;5063798;28;20059;-81
2024/01/28 05:09:15;;;;;;;4.63;2.38;;;3.70;89.40;;;;;;5064498;28;20060;-81
2024/01/28 05:11:41;;;;;;;4.43;2.30;;;3.60;88.70;;;;;;5065866;28;20093;-81
2024/01/28 05:14:06;;;;;;;4.53;2.15;;;3.60;88.40;;;;;;5061734;28;20032;-82
2024/01/28 05:16:32;;;;;;;4.68;2.60;;;3.60;88.00;;;;;;5064454;28;20035;-81
2024/01/28 05:18:58;;;;;;;3.70;1.80;;;3.60;88.10;;;;;;5062760;28;20048;-81
2024/01/28 05:21:24;;;;;;;5.15;1.98;;;3.60;88.50;;;;;;5066476;28;20413;-80
2024/01/28 05:23:53;;;;;;;5.15;2.22;;;3.70;87.00;;;;;;5064809;28;20121;-81
2024/01/28 05:26:18;;;;;;;2.53;1.40;;;3.70;87.20;;;;;;5063278;28;20060;-81
2024/01/28 05:28:47;;;;;;;3.42;1.45;;;3.70;86.80;;;;;;5063566;28;20115;-81
2024/01/28 05:31:12;;;;;;;2.72;1.60;;;3.60;86.80;;;;;;5064773;28;20039;-81
2024/01/28 05:33:39;;;;;;;3.80;2.08;;;3.60;86.80;;;;;;5059676;28;20074;-82
2024/01/28 05:36:13;;;;;;;4.65;1.85;;;3.70;86.90;;;;;;5064695;28;20039;-81
2024/01/28 05:38:39;;;;;;;4.82;2.20;;;3.60;86.70;;;;;;5059478;28;20032;-81
2024/01/28 05:41:08;;;;;;;3.35;1.67;;;3.70;86.80;;;;;;5063737;28;20039;-81
2024/01/28 05:43:34;;;;;;;3.25;1.60;;;3.50;87.10;;;;;;5063904;28;20154;-81
2024/01/28 05:46:01;;;;;;;2.95;1.60;;;3.20;88.60;;;;;;5062739;28;21195;-81
2024/01/28 05:48:27;;;;;;;3.72;1.67;;;3.30;88.40;;;;;;5064936;28;20118;-81
2024/01/28 05:50:52;;;;;;;3.65;1.42;;;3.40;88.00;;;;;;5063869;28;20040;-81
2024/01/28 05:53:18;;;;;;;4.63;1.88;;;3.40;87.40;;;;;;5065867;28;20043;-81
2024/01/28 05:55:44;;;;;;;2.63;1.48;;;3.70;86.30;;;;;;5065709;28;20028;-81
2024/01/28 05:58:09;;;;;;;3.55;1.50;;;3.70;86.40;;;;;;5057008;28;20102;-81
2024/01/28 06:00:35;;;;;;;3.72;1.90;;;3.50;86.80;;;;;;5057706;28;20040;-81
2024/01/28 06:03:01;;;;;;;8.40;2.10;;;3.30;87.40;;;;;;5060540;28;20029;-81
2024/01/28 06:05:26;;;;;;;3.60;1.88;;;3.20;87.90;;;;;;5069018;28;20442;-81
2024/01/28 06:07:52;;;;;;;3.10;1.50;;;3.10;88.30;;;;;;5066578;28;20046;-81
2024/01/28 06:10:18;;;;;;;3.70;1.60;;;3.20;87.80;;;;;;5073250;28;20028;-81
2024/01/28 06:12:43;;;;;;;4.53;1.77;;;3.10;88.20;;;;;;5067157;28;21249;-81
2024/01/28 06:15:09;;;;;;;4.53;2.15;;;3.00;88.60;;;;;;5070851;28;20097;-81
2024/01/28 06:17:38;;;;;;;5.95;2.25;;;3.10;88.70;;;;;;5070648;28;20037;-80
2024/01/28 06:20:05;;;;;;;4.47;1.73;;;3.30;87.40;;;;;;5071014;28;20035;-81
2024/01/28 06:22:31;;;;;;;5.03;2.10;;;3.50;87.20;;;;;;5070103;28;20047;-81
2024/01/28 06:24:58;;;;;;;4.32;1.95;;;3.60;86.80;;;;;;5071330;28;20647;-80
2024/01/28 06:27:24;;;;;;;5.05;2.13;;;3.30;87.90;;;;;;5069437;28;21327;-80
2024/01/28 06:29:49;;;;;;;5.05;2.30;;;3.40;87.90;;;;;;5069946;28;20355;-81
2024/01/28 06:32:15;;;;;;;4.43;2.13;;;3.50;87.30;;;;;;5071149;28;20061;-81
2024/01/28 06:34:41;;;;;;;4.95;2.10;;;3.60;86.80;;;;;;5062794;28;20094;-80
2024/01/28 06:37:06;;;;;;;4.40;2.25;;;3.70;86.80;;;;;;5056728;28;20395;-81
2024/01/28 06:39:32;;;;;;;3.90;2.13;;;3.60;87.10;;;;;;5071361;28;20049;-78
2024/01/28 06:41:58;;;;;;;5.38;2.15;;;3.50;87.50;;;;;;5055501;28;20039;-83
2024/01/28 06:44:23;;;;;;;3.83;1.73;;;3.40;87.80;;;;;;5067281;28;20042;-80
2024/01/28 06:46:49;;;;;;;5.32;2.35;;;3.20;88.10;;;;;;5057642;28;20031;-81
2024/01/28 06:49:15;;;;;;;4.70;2.10;;;3.40;87.70;;;;;;5051946;28;20040;-81
2024/01/28 06:51:42;;;;;;;5.30;2.33;;;3.50;87.80;;;;;;5064233;28;20029;-82
2024/01/28 06:54:08;;;;;;;4.95;2.10;;;3.60;87.10;;;;;;5065299;28;20141;-82
2024/01/28 06:56:34;;;;;;;3.65;1.90;;;3.60;86.90;;;;;;5062526;28;20032;-81
2024/01/28 06:58:59;;;;;;;4.80;2.15;;;3.70;86.20;;;;;;5054319;28;20048;-82
2024/01/28 07:01:25;;;;;;;4.03;2.25;;;3.50;87.30;;;;;;5061189;28;20100;-81
2024/01/28 07:03:50;;;;;;;6.57;2.05;;;3.20;89.40;;;;;;5056927;28;20116;-81
2024/01/28 07:06:16;;;;;;;4.40;1.77;;;3.10;88.50;;;;;;5063472;28;20327;-81
2024/01/28 07:08:42;;;;;;;4.25;1.90;;;3.40;87.00;;;;;;5063841;28;20047;-81
2024/01/28 07:11:08;;;;;;;4.00;2.13;;;3.50;87.00;;;;;;5061014;28;20123;-81
2024/01/28 07:13:34;;;;;;;5.72;3.38;;;3.50;87.40;;;;;;5069814;28;20302;-81
2024/01/28 07:15:59;;;;;;;4.22;2.10;;;3.40;88.00;;;;;;5059479;28;20043;-82
2024/01/28 07:18:25;;;;;;;3.17;1.75;;;3.40;88.40;;;;;;5060889;28;20114;-81
2024/01/28 07:20:51;;;;;;;4.82;1.85;;;3.20;89.20;;;;;;5066302;28;20502;-82
2024/01/28 07:23:16;;;;;;;4.20;2.22;;;3.20;89.00;;;;;;5060185;28;20029;-81
2024/01/28 07:25:42;;;;;;;5.88;1.98;;;2.90;90.00;;;;;;5063358;28;20040;-82
2024/01/28 07:28:07;;;;;;;3.90;1.80;;;3.00;89.50;;;;;;5057511;28;20047;-81
2024/01/28 07:30:33;;;;;;;3.45;1.77;;;3.30;88.40;;;;;;5064961;28;20028;-82
2024/01/28 07:32:59;;;;;;;4.82;1.65;;;3.40;88.40;;;;;;5063250;28;20024;-80
2024/01/28 07:35:24;;;;;;;4.35;1.98;;;3.20;89.70;;;;;;5060982;28;20040;-81
2024/01/28 07:37:50;;;;;;;4.95;1.80;;;3.00;89.70;;;;;;5066249;28;20075;-81
2024/01/28 07:40:16;;;;;;;6.38;2.20;;;3.20;89.70;;;;;;5067163;28;20126;-81
2024/01/28 07:42:41;;;;;;;3.92;1.88;;;3.10;89.90;;;;;;5067969;28;20066;-82
2024/01/28 07:45:09;;;;;;;4.35;1.98;;;3.00;90.00;;;;;;5052195;28;20101;-82
2024/01/28 07:47:35;;;;;;;5.15;2.40;;;3.00;90.20;;;;;;5068853;28;20040;-81
2024/01/28 07:50:01;;;;;;;4.35;2.25;;;2.80;90.40;;;;;;5067912;28;20036;-80
2024/01/28 07:52:27;;;;;;;4.32;2.40;;;2.80;90.50;;;;;;5065580;28;20036;-82
2024/01/28 07:54:53;;;;;;;4.72;2.30;;;3.00;90.10;;;;;;5064212;28;20060;-81
2024/01/28 07:57:19;;;;;;;5.22;2.45;;;2.70;90.90;;;;;;5060041;28;20028;-80
2024/01/28 07:59:44;;;;;;;5.15;2.58;;;2.80;90.80;;;;;;5063440;28;20047;-79
2024/01/28 08:02:10;;;;;;;4.47;2.00;;;2.60;90.90;;;;;;5065247;28;20028;-80
2024/01/28 08:04:36;;;;;;;4.95;2.17;;;2.70;90.90;;;;;;5063246;28;20028;-81
2024/01/28 08:07:02;;;;;;;6.05;2.17;;;2.70;90.90;;;;;;5066338;28;20544;-81
2024/01/28 08:09:31;;;;;;;5.65;1.90;;;4.00;99.40;;;;;;5065621;28;20083;-81
2024/01/28 08:11:57;;;;;;;4.00;1.80;;;3.60;90.90;;;;;;5065060;28;20143;-80
2024/01/28 08:14:27;;;;;;;4.53;1.77;;;3.20;90.70;;;;;;5066038;28;20036;-80
2024/01/28 08:16:55;;;;;;;4.95;2.40;;;3.10;91.20;;;;;;5063859;28;20036;-81
2024/01/28 08:19:21;;;;;;;5.68;2.60;;;3.10;91.00;;;;;;5065394;28;20123;-78
2024/01/28 08:21:48;;;;;;;5.07;1.92;;;3.10;91.20;;;;;;5065710;28;20461;-81
2024/01/28 08:24:13;;;;;;;5.75;3.28;;;3.00;91.50;;;;;;5061668;28;20040;-80
2024/01/28 08:26:40;;;;;;;12.43;6.93;;;2.90;91.70;;;;;;5062142;28;20031;-78
2024/01/28 08:29:06;;;;;;;30.90;19.33;;;2.90;91.50;;;;;;5067071;28;20040;-78
2024/01/28 08:31:31;;;;;;;27.55;14.85;;;2.80;91.80;;;;;;5066101;28;20063;-78
2024/01/28 08:33:57;;;;;;;18.00;11.27;;;2.80;92.60;;;;;;5060329;28;20042;-78
2024/01/28 08:36:23;;;;;;;11.07;7.72;;;2.90;93.10;;;;;;5061651;28;20044;-78
2024/01/28 08:38:48;;;;;;;6.68;3.42;;;2.70;92.40;;;;;;5056008;28;20028;-78
2024/01/28 08:41:14;;;;;;;5.78;2.83;;;2.60;92.40;;;;;;5054589;28;20486;-76
2024/01/28 08:43:40;;;;;;;7.72;2.13;;;2.70;92.40;;;;;;5062222;28;20110;-77
2024/01/28 08:46:06;;;;;;;4.65;2.28;;;2.80;92.30;;;;;;5061401;28;20085;-78
2024/01/28 08:48:32;;;;;;;4.00;1.92;;;2.70;92.80;;;;;;5059844;28;20550;-78
2024/01/28 08:50:57;;;;;;;4.05;1.85;;;2.80;92.40;;;;;;5061460;28;20060;-78
2024/01/28 08:53:23;;;;;;;4.75;1.88;;;2.90;91.70;;;;;;5063285;28;20063;-77
2024/01/28 08:55:49;;;;;;;5.63;2.15;;;2.90;92.00;;;;;;5063363;28;20040;-78
2024/01/28 08:58:15;;;;;;;4.30;2.30;;;2.80;91.90;;;;;;5059378;28;20120;-78
2024/01/28 09:00:41;;;;;;;5.07;2.50;;;2.80;91.50;;;;;;5060605;28;20035;-78
2024/01/28 09:03:06;;;;;;;5.43;1.58;;;2.90;91.20;;;;;;5064599;28;20620;-78
2024/01/28 09:05:32;;;;;;;4.20;1.73;;;3.00;90.80;;;;;;5061429;28;20039;-77
2024/01/28 09:07:58;;;;;;;4.10;1.75;;;3.10;90.80;;;;;;5055353;28;20056;-78
2024/01/28 09:10:24;;;;;;;3.25;1.50;;;3.20;90.50;;;;;;5064014;28;21694;-79
2024/01/28 09:12:49;;;;;;;3.60;1.60;;;3.30;90.10;;;;;;5066112;28;20028;-78
2024/01/28 09:15:15;;;;;;;3.67;1.38;;;3.30;90.20;;;;;;5058201;28;20043;-78
2024/01/28 09:17:41;;;;;;;3.78;1.40;;;3.30;90.30;;;;;;5059566;28;20598;-78
2024/01/28 09:20:08;;;;;;;3.95;1.77;;;3.30;90.10;;;;;;5058414;28;20067;-79
2024/01/28 09:22:35;;;;;;;3.25;1.70;;;3.20;90.40;;;;;;5057535;28;20029;-80
2024/01/28 09:25:04;;;;;;;4.75;1.52;;;3.10;90.80;;;;;;5055518;28;20749;-80
2024/01/28 09:27:30;;;;;;;3.35;1.40;;;3.20;90.70;;;;;;5052792;28;20092;-80
2024/01/28 09:29:56;;;;;;;4.72;1.70;;;3.30;90.00;;;;;;5057556;28;20766;-80
2024/01/28 09:32:24;;;;;;;3.22;1.38;;;3.40;90.00;;;;;;5056391;28;20039;-78
2024/01/28 09:34:51;;;;;;;3.40;1.40;;;3.50;90.10;;;;;;5060328;28;20061;-81
2024/01/28 09:37:18;;;;;;;3.95;1.40;;;3.40;90.40;;;;;;5063445;28;20679;-80
2024/01/28 09:39:44;;;;;;;3.60;1.50;;;3.30;91.10;;;;;;5062849;28;20079;-80
2024/01/28 09:42:16;;;;;;;2.15;1.20;;;3.20;90.80;;;;;;5068993;28;20053;-80
2024/01/28 09:44:42;;;;;;;3.28;1.55;;;3.20;91.10;;;;;;5062412;28;20040;-80
2024/01/28 09:47:08;;;;;;;4.50;1.70;;;3.10;90.50;;;;;;5061198;28;20536;-80
2024/01/28 09:49:40;;;;;;;3.80;1.90;;;3.20;90.60;;;;;;5059704;28;20678;-81
2024/01/28 09:52:13;;;;;;;4.07;1.48;;;3.00;90.70;;;;;;5065878;28;20020;-79
2024/01/28 09:54:41;;;;;;;5.00;1.20;;;3.10;91.10;;;;;;5063338;28;20073;-78
2024/01/28 09:57:08;;;;;;;3.67;1.35;;;3.20;91.10;;;;;;5065869;28;20032;-78
2024/01/28 09:59:38;;;;;;;2.22;1.10;;;3.40;91.40;;;;;;5063551;28;20064;-79
2024/01/28 10:02:04;;;;;;;2.75;1.50;;;3.50;90.30;;;;;;5064988;28;20027;-80
2024/01/28 10:04:31;;;;;;;3.72;1.30;;;3.70;89.10;;;;;;5064485;28;20122;-81
2024/01/28 10:07:01;;;;;;;2.72;1.48;;;3.80;88.10;;;;;;5059022;28;20036;-78
2024/01/28 10:09:28;;;;;;;8.25;1.50;;;3.90;87.70;;;;;;5055597;28;20059;-78
2024/01/28 10:11:54;;;;;;;4.07;1.75;;;4.00;88.30;;;;;;5057300;28;20039;-79
2024/01/28 10:14:20;;;;;;;4.10;1.33;;;4.20;88.40;;;;;;5057326;28;20055;-78
2024/01/28 10:16:47;;;;;;;2.42;1.25;;;4.40;88.60;;;;;;5055825;28;20165;-78
2024/01/28 10:19:14;;;;;;;4.60;2.08;;;4.50;87.90;;;;;;5063299;28;20413;-78
2024/01/28 10:21:41;;;;;;;6.05;2.33;;;4.70;87.40;;;;;;5071411;28;20024;-78
2024/01/28 10:24:11;;;;;;;8.13;3.13;;;4.70;88.70;;;;;;5055897;28;20143;-78
2024/01/28 10:26:37;;;;;;;6.05;2.72;;;4.60;90.00;;;;;;5065575;28;20037;-78
2024/01/28 10:29:03;;;;;;;7.50;2.67;;;4.60;90.50;;;;;;5056762;28;20032;-79
2024/01/28 10:31:30;;;;;;;10.70;3.22;;;4.60;90.60;;;;;;5073401;28;20036;-79
2024/01/28 10:33:56;;;;;;;8.70;3.25;;;4.70;90.50;;;;;;5063922;28;20191;-81
2024/01/28 10:36:21;;;;;;;8.02;3.60;;;4.80;90.20;;;;;;5056702;28;21323;-80
2024/01/28 10:38:48;;;;;;;8.23;3.35;;;5.00;90.30;;;;;;5073572;28;20635;-80
2024/01/28 10:41:18;;;;;;;8.23;3.53;;;5.10;90.30;;;;;;5061184;28;20028;-80
2024/01/28 10:44:05;;;;;;;8.63;4.03;;;5.20;89.90;;;;;;5059250;28;20028;-80
2024/01/28 10:46:39;;;;;;;7.35;3.50;;;5.30;90.20;;;;;;5055735;28;20032;-80
2024/01/28 10:49:09;;;;;;;11.02;4.43;;;5.30;90.40;;;;;;5073748;28;20506;-79
2024/01/28 10:51:38;;;;;;;7.82;3.30;;;5.30;90.30;;;;;;5057467;28;20073;-80
2024/01/28 10:54:07;;;;;;;5.50;2.88;;;5.40;90.00;;;;;;5053400;28;20031;-78
2024/01/28 10:56:33;;;;;;;6.78;3.28;;;5.40;90.00;;;;;;5057021;28;20155;-80
2024/01/28 10:58:59;;;;;;;11.02;4.25;;;5.40;89.40;;;;;;5075053;28;20064;-79
2024/01/28 11:01:27;;;;;;;8.93;4.80;;;5.50;89.10;;;;;;5060935;28;20036;-79
2024/01/28 11:03:55;;;;;;;6.20;3.28;;;5.60;89.40;;;;;;5060288;28;20040;-78
2024/01/28 11:06:20;;;;;;;5.63;2.40;;;5.60;89.10;;;;;;5061432;28;20036;-78
2024/01/28 11:08:46;;;;;;;6.53;3.10;;;5.70;88.50;;;;;;5067313;28;20052;-78
2024/01/28 11:11:13;;;;;;;7.35;3.05;;;5.80;88.50;;;;;;5057529;28;20032;-78
2024/01/28 11:13:38;;;;;;;7.93;2.78;;;6.00;88.50;;;;;;5057155;28;20147;-77
2024/01/28 11:16:10;;;;;;;7.72;2.25;;;6.10;87.80;;;;;;5056683;28;20107;-78
2024/01/28 11:18:36;;;;;;;7.53;4.40;;;6.10;88.70;;;;;;5054093;28;20036;-80
2024/01/28 11:21:18;;;;;;;14.93;6.07;;;6.20;86.70;;;;;;5054693;28;20110;-77
2024/01/28 11:23:44;;;;;;;9.75;4.85;;;6.30;85.90;;;;;;5054613;28;20032;-77
2024/01/28 11:26:19;;;;;;;6.43;3.33;;;6.40;86.10;;;;;;5054013;28;20033;-80
2024/01/28 11:28:49;;;;;;;6.35;2.92;;;6.40;86.20;;;;;;5055409;28;20036;-78
2024/01/28 11:31:22;;;;;;;7.53;4.20;;;6.50;87.10;;;;;;5055102;28;20539;-80
2024/01/28 11:33:48;;;;;;;4.60;2.17;;;6.60;87.00;;;;;;5057027;28;20162;-78
2024/01/28 11:36:25;;;;;;;16.25;3.65;;;6.70;85.60;;;;;;5057150;28;20356;-77
2024/01/28 11:39:01;;;;;;;9.07;3.25;;;6.70;84.70;;;;;;5057920;28;20048;-77
2024/01/28 11:41:29;;;;;;;5.57;3.00;;;7.00;86.10;;;;;;5058325;28;20055;-80
2024/01/28 11:43:55;;;;;;;14.73;8.10;;;7.10;85.60;;;;;;5056697;28;20043;-80
2024/01/28 11:46:21;;;;;;;25.45;13.88;;;7.30;85.50;;;;;;5055269;28;20040;-80
2024/01/28 11:48:47;;;;;;;28.75;15.88;;;7.30;84.50;;;;;;5057504;28;20029;-80
2024/01/28 11:51:12;;;;;;;14.27;8.32;;;7.40;84.40;;;;;;5052951;28;20100;-81
2024/01/28 11:53:42;;;;;;;7.82;4.75;;;7.60;83.50;;;;;;5052191;28;20091;-80
2024/01/28 11:56:08;;;;;;;6.07;2.80;;;7.80;84.00;;;;;;5043711;28;20033;-81
2024/01/28 11:58:33;;;;;;;11.05;2.60;;;8.00;83.60;;;;;;5052035;28;20036;-81
2024/01/28 12:00:59;;;;;;;5.43;1.90;;;7.90;82.90;;;;;;5050527;28;20489;-80
2024/01/28 12:03:24;;;;;;;23.70;4.68;;;8.00;82.80;;;;;;5050011;28;20040;-80
2024/01/28 12:05:50;;;;;;;9.82;3.20;;;7.80;83.30;;;;;;5050467;28;20036;-80
2024/01/28 12:08:26;;;;;;;4.93;2.13;;;7.90;82.70;;;;;;5051199;28;20772;-78
2024/01/28 12:10:57;;;;;;;4.95;2.47;;;8.10;83.20;;;;;;5050055;28;20394;-80
2024/01/28 12:13:23;;;;;;;9.00;1.90;;;8.00;82.20;;;;;;5051900;28;20036;-78
2024/01/28 12:15:49;;;;;;;5.53;1.73;;;7.90;82.30;;;;;;5052255;28;20039;-80
2024/01/28 12:18:14;;;;;;;6.65;1.90;;;7.90;82.40;;;;;;5052634;28;20033;-81
2024/01/28 12:20:40;;;;;;;3.88;1.73;;;7.90;82.50;;;;;;5051808;28;20048;-80
2024/01/28 12:23:06;;;;;;;4.43;1.70;;;7.90;82.30;;;;;;5050682;28;20036;-78
2024/01/28 12:25:34;;;;;;;5.35;1.70;;;7.90;82.90;;;;;;5050555;28;20033;-79
2024/01/28 12:28:00;;;;;;;4.43;1.92;;;8.00;82.30;;;;;;5050506;28;20039;-81
2024/01/28 12:30:26;;;;;;;5.05;1.70;;;8.00;81.50;;;;;;5051017;28;20032;-80
2024/01/28 12:32:51;;;;;;;4.82;1.42;;;8.00;81.00;;;;;;5047391;28;20048;-80
2024/01/28 12:35:17;;;;;;;5.50;1.45;;;8.30;84.20;;;;;;5044215;28;20565;-79
2024/01/28 12:37:43;;;;;;;3.35;1.58;;;8.70;85.10;;;;;;5051561;28;20602;-82
2024/01/28 12:40:10;;;;;;;4.43;1.55;;;8.90;80.60;;;;;;5051921;28;20158;-80
2024/01/28 12:42:38;;;;;;;3.97;1.75;;;8.60;80.80;;;;;;5049768;28;20032;-82
2024/01/28 12:45:04;;;;;;;4.82;1.70;;;8.40;81.30;;;;;;5050097;28;20098;-81
2024/01/28 12:47:30;;;;;;;3.80;1.63;;;8.40;81.50;;;;;;5050031;28;20051;-81
2024/01/28 12:49:55;;;;;;;3.50;1.48;;;8.60;82.50;;;;;;5051277;28;20127;-79
2024/01/28 12:52:22;;;;;;;3.53;1.48;;;8.70;81.60;;;;;;5049842;28;20127;-80